Time;durP1;ratioP1;P1;durP2;ratioP2;P2;SDS_P1;SDS_P2;PMS_P1;PMS_P2;Temp;Humidity;BMP_temperature;BMP_pressure;BME280_temperature;BME280_humidity;BME280_pressure;Samples;Min_cycle;Max_cycle;Signal;HPM_P1;HPM_P2
2023/08/17 00:02:04;;;;;;;4.30;3.50;;;13.80;99.90;;;;;;4994429;28;20042;-75
2023/08/17 00:04:30;;;;;;;5.28;3.40;;;13.70;99.90;;;;;;4995081;28;20379;-76
2023/08/17 00:06:56;;;;;;;6.13;3.95;;;13.80;99.90;;;;;;4994646;28;20125;-76
2023/08/17 00:09:22;;;;;;;5.63;3.17;;;13.80;99.90;;;;;;4994875;28;20197;-76
2023/08/17 00:11:48;;;;;;;5.20;3.67;;;13.70;99.90;;;;;;4994491;28;20037;-76
2023/08/17 00:14:13;;;;;;;4.18;3.30;;;13.70;99.90;;;;;;5008836;28;20035;-76
2023/08/17 00:16:39;;;;;;;5.72;3.97;;;13.70;99.90;;;;;;4993244;28;20425;-76
2023/08/17 00:19:05;;;;;;;4.72;3.47;;;13.60;99.90;;;;;;4993778;28;20037;-76
2023/08/17 00:21:31;;;;;;;4.55;3.42;;;13.70;99.90;;;;;;4994120;28;20522;-76
2023/08/17 00:23:57;;;;;;;4.30;3.50;;;13.60;99.90;;;;;;4993084;28;20448;-76
2023/08/17 00:26:22;;;;;;;3.75;3.40;;;13.50;99.90;;;;;;4994342;28;20116;-76
2023/08/17 00:28:48;;;;;;;4.55;3.17;;;13.50;99.90;;;;;;4994422;28;20023;-75
2023/08/17 00:31:14;;;;;;;7.82;3.25;;;13.50;99.90;;;;;;4993760;28;20388;-76
2023/08/17 00:33:39;;;;;;;4.97;3.22;;;13.50;99.90;;;;;;4994060;28;20056;-77
2023/08/17 00:36:05;;;;;;;5.38;3.65;;;13.50;99.90;;;;;;4993936;28;20023;-76
2023/08/17 00:38:31;;;;;;;4.25;3.75;;;13.50;99.90;;;;;;4992612;28;20458;-76
2023/08/17 00:40:57;;;;;;;4.22;3.35;;;13.40;99.90;;;;;;4994635;28;20069;-75
2023/08/17 00:43:23;;;;;;;6.20;3.97;;;13.50;99.90;;;;;;4993336;28;20082;-75
2023/08/17 00:45:49;;;;;;;5.07;4.57;;;13.50;99.90;;;;;;4992700;28;20440;-74
2023/08/17 00:48:15;;;;;;;5.75;3.45;;;13.40;99.90;;;;;;4993513;28;20061;-74
2023/08/17 00:50:41;;;;;;;4.57;3.70;;;13.30;99.90;;;;;;4994331;28;20026;-76
2023/08/17 00:53:12;;;;;;;4.57;3.70;;;13.40;99.90;;;;;;4993517;28;20034;-76
2023/08/17 00:55:39;;;;;;;5.65;4.43;;;13.30;99.90;;;;;;4993718;28;20057;-76
2023/08/17 00:58:05;;;;;;;3.85;3.45;;;13.30;99.90;;;;;;4992154;28;20485;-76
2023/08/17 01:00:31;;;;;;;4.70;3.20;;;13.20;99.90;;;;;;4994303;28;20038;-75
2023/08/17 01:02:57;;;;;;;5.30;3.72;;;13.30;99.90;;;;;;4993542;28;20073;-76
2023/08/17 01:05:23;;;;;;;4.40;3.47;;;13.30;99.90;;;;;;4992949;28;20050;-76
2023/08/17 01:07:49;;;;;;;7.22;3.50;;;13.20;99.90;;;;;;4993443;28;20034;-76
2023/08/17 01:10:16;;;;;;;6.57;3.58;;;13.20;99.90;;;;;;4993150;28;20046;-75
2023/08/17 01:12:55;;;;;;;6.20;3.88;;;13.20;99.90;;;;;;4993592;28;20057;-76
2023/08/17 01:15:36;;;;;;;5.15;3.75;;;13.30;99.90;;;;;;4991855;28;20190;-77
2023/08/17 01:18:31;;;;;;;4.90;3.45;;;13.20;99.90;;;;;;4992462;28;20106;-77
2023/08/17 01:20:57;;;;;;;7.80;3.63;;;13.20;99.90;;;;;;4993882;28;20081;-77
2023/08/17 01:23:23;;;;;;;9.02;4.70;;;13.30;99.90;;;;;;4993423;28;20042;-77
2023/08/17 01:25:49;;;;;;;5.18;3.90;;;13.30;99.90;;;;;;4994275;28;20030;-77
2023/08/17 01:28:15;;;;;;;5.85;4.63;;;13.20;99.90;;;;;;4993246;28;20361;-76
2023/08/17 01:30:55;;;;;;;4.13;3.63;;;13.20;99.90;;;;;;4994116;28;20053;-75
2023/08/17 01:33:30;;;;;;;5.38;4.32;;;13.20;99.90;;;;;;4994129;28;20408;-76
2023/08/17 01:36:10;;;;;;;4.03;3.60;;;13.20;99.90;;;;;;4993415;28;20096;-75
2023/08/17 01:38:38;;;;;;;6.32;3.65;;;13.20;99.90;;;;;;4992725;28;20224;-75
2023/08/17 01:41:05;;;;;;;8.55;4.28;;;13.20;99.90;;;;;;4991491;28;20041;-75
2023/08/17 01:43:31;;;;;;;6.40;4.05;;;13.20;99.90;;;;;;4993127;28;20103;-76
2023/08/17 01:45:57;;;;;;;6.28;4.18;;;13.20;99.90;;;;;;4992826;28;20513;-77
2023/08/17 01:48:23;;;;;;;5.38;3.47;;;13.20;99.90;;;;;;4992556;28;20023;-76
2023/08/17 01:50:48;;;;;;;3.88;3.35;;;13.10;99.90;;;;;;4992601;28;20026;-76
2023/08/17 01:53:14;;;;;;;6.70;4.03;;;13.20;99.90;;;;;;4992544;28;20057;-75
2023/08/17 01:55:40;;;;;;;5.78;3.47;;;13.20;99.90;;;;;;4993294;28;20384;-77
2023/08/17 01:58:06;;;;;;;5.45;3.28;;;13.20;99.90;;;;;;4992395;28;20081;-77
2023/08/17 02:00:31;;;;;;;5.65;3.25;;;13.20;99.90;;;;;;4993196;28;20332;-76
2023/08/17 02:02:57;;;;;;;7.28;3.63;;;13.20;99.90;;;;;;4992513;28;20121;-76
2023/08/17 02:05:23;;;;;;;5.70;3.67;;;13.20;99.90;;;;;;4992251;28;20034;-76
2023/08/17 02:07:48;;;;;;;4.80;3.65;;;13.20;99.90;;;;;;4992943;28;20081;-76
2023/08/17 02:10:14;;;;;;;6.07;4.18;;;13.20;99.90;;;;;;4991583;28;20104;-75
2023/08/17 02:12:40;;;;;;;6.30;3.78;;;13.20;99.90;;;;;;4992595;28;20040;-75
2023/08/17 02:15:06;;;;;;;4.95;3.67;;;13.20;99.90;;;;;;4992299;28;20056;-76
2023/08/17 02:17:32;;;;;;;4.00;3.55;;;13.20;99.90;;;;;;4991459;28;20056;-77
2023/08/17 02:19:58;;;;;;;7.72;5.07;;;13.20;99.90;;;;;;4992236;28;20440;-76
2023/08/17 02:22:23;;;;;;;6.55;4.43;;;13.20;99.90;;;;;;4992447;28;20407;-75
2023/08/17 02:24:49;;;;;;;4.53;3.88;;;13.20;99.90;;;;;;4992179;28;20196;-76
2023/08/17 02:27:15;;;;;;;5.00;4.25;;;13.30;99.90;;;;;;4992057;28;20153;-75
2023/08/17 02:29:40;;;;;;;5.18;4.40;;;13.30;99.90;;;;;;4992042;28;20045;-75
2023/08/17 02:32:06;;;;;;;5.70;4.28;;;13.20;99.90;;;;;;4992042;28;20449;-76
2023/08/17 02:34:32;;;;;;;4.30;3.90;;;13.20;99.90;;;;;;4990196;28;20027;-76
2023/08/17 02:36:57;;;;;;;7.55;4.18;;;13.20;99.90;;;;;;4991849;28;20114;-76
2023/08/17 02:39:24;;;;;;;5.10;3.67;;;13.20;99.90;;;;;;4991173;28;20057;-76
2023/08/17 02:41:49;;;;;;;8.07;4.20;;;13.20;99.90;;;;;;4991473;28;20030;-76
2023/08/17 02:44:15;;;;;;;5.28;4.00;;;13.20;99.90;;;;;;4991146;28;20104;-76
2023/08/17 02:46:41;;;;;;;5.28;4.00;;;13.20;99.90;;;;;;4991986;28;20379;-75
2023/08/17 02:49:07;;;;;;;4.18;3.55;;;13.30;99.90;;;;;;4991662;28;20026;-76
2023/08/17 02:51:32;;;;;;;8.30;4.25;;;13.20;99.90;;;;;;4989744;28;20234;-74
2023/08/17 02:53:58;;;;;;;5.32;3.85;;;13.30;99.90;;;;;;4992172;28;20033;-75
2023/08/17 02:56:24;;;;;;;5.97;4.00;;;13.20;99.90;;;;;;4991146;28;20423;-76
2023/08/17 02:58:49;;;;;;;5.50;4.20;;;13.30;99.90;;;;;;4990270;28;20399;-75
2023/08/17 03:01:15;;;;;;;6.82;4.28;;;13.30;99.90;;;;;;4989627;28;20026;-76
2023/08/17 03:03:41;;;;;;;6.28;3.90;;;13.30;99.90;;;;;;4991344;28;20105;-76
2023/08/17 03:06:07;;;;;;;3.88;3.45;;;13.30;99.90;;;;;;4991951;28;20030;-75
2023/08/17 03:08:33;;;;;;;5.32;3.50;;;13.30;99.90;;;;;;4991491;28;20030;-77
2023/08/17 03:10:59;;;;;;;4.18;3.20;;;13.40;99.90;;;;;;4991873;28;20468;-76
2023/08/17 03:13:24;;;;;;;6.47;3.33;;;13.40;99.90;;;;;;4991501;28;20099;-77
2023/08/17 03:15:50;;;;;;;4.80;3.33;;;13.40;99.90;;;;;;4991215;28;20026;-75
2023/08/17 03:18:16;;;;;;;4.50;3.05;;;13.40;99.90;;;;;;4991158;28;20098;-77
2023/08/17 03:20:44;;;;;;;4.75;3.15;;;13.40;99.90;;;;;;4991541;28;20078;-76
2023/08/17 03:23:09;;;;;;;7.50;3.33;;;13.40;99.90;;;;;;4990660;28;20037;-77
2023/08/17 03:25:35;;;;;;;3.85;2.63;;;13.40;99.90;;;;;;4990912;28;20026;-76
2023/08/17 03:28:01;;;;;;;5.15;3.17;;;13.40;99.90;;;;;;4991256;28;20041;-76
2023/08/17 03:30:27;;;;;;;5.57;3.08;;;13.50;99.90;;;;;;4990001;28;20034;-76
2023/08/17 03:32:52;;;;;;;7.32;3.97;;;13.50;99.90;;;;;;4990183;28;20093;-76
2023/08/17 03:35:18;;;;;;;7.80;3.20;;;13.50;99.90;;;;;;4990633;28;20085;-76
2023/08/17 03:37:45;;;;;;;6.05;3.42;;;13.50;99.90;;;;;;4991721;28;20050;-75
2023/08/17 03:40:11;;;;;;;5.50;2.72;;;13.50;99.90;;;;;;4990858;28;20109;-76
2023/08/17 03:42:36;;;;;;;2.60;2.40;;;13.50;99.90;;;;;;4990918;28;20039;-76
2023/08/17 03:45:03;;;;;;;3.70;3.38;;;13.60;99.90;;;;;;4989834;28;20022;-76
2023/08/17 03:47:29;;;;;;;4.97;3.22;;;13.60;99.90;;;;;;4990574;28;20039;-76
2023/08/17 03:49:55;;;;;;;6.68;3.63;;;13.50;99.90;;;;;;4991273;28;20077;-76
2023/08/17 03:52:20;;;;;;;5.25;3.88;;;13.50;99.90;;;;;;4990750;28;20037;-76
2023/08/17 03:54:46;;;;;;;4.50;3.60;;;13.50;99.90;;;;;;4990976;28;20165;-75
2023/08/17 03:57:12;;;;;;;4.72;3.38;;;13.50;99.90;;;;;;4990768;28;20310;-76
2023/08/17 03:59:38;;;;;;;6.28;3.85;;;13.50;99.90;;;;;;4990617;28;20030;-75
2023/08/17 04:02:04;;;;;;;6.47;3.75;;;13.50;99.90;;;;;;4991393;28;20456;-75
2023/08/17 04:04:30;;;;;;;5.00;4.50;;;13.50;99.90;;;;;;4990584;28;20153;-76
2023/08/17 04:06:55;;;;;;;6.40;3.90;;;13.50;99.90;;;;;;4989479;28;20034;-76
2023/08/17 04:09:21;;;;;;;4.55;3.92;;;13.50;99.90;;;;;;4989185;28;20031;-77
2023/08/17 04:11:46;;;;;;;6.85;4.18;;;13.60;99.90;;;;;;4991158;28;20104;-74
2023/08/17 04:14:13;;;;;;;5.88;5.00;;;13.60;99.90;;;;;;4990804;28;20054;-77
2023/08/17 04:16:39;;;;;;;7.72;4.85;;;13.60;99.90;;;;;;4989471;28;20379;-76
2023/08/17 04:19:05;;;;;;;8.52;5.30;;;13.60;99.90;;;;;;4990855;28;20105;-77
2023/08/17 04:21:31;;;;;;;5.60;4.65;;;13.60;99.90;;;;;;4990285;28;20630;-74
2023/08/17 04:23:56;;;;;;;6.57;4.65;;;13.60;99.90;;;;;;4990929;28;20066;-75
2023/08/17 04:26:22;;;;;;;5.50;4.30;;;13.60;99.90;;;;;;4990212;28;20113;-75
2023/08/17 04:28:48;;;;;;;9.05;6.07;;;13.60;99.90;;;;;;4990896;28;20184;-76
2023/08/17 04:31:13;;;;;;;9.38;5.03;;;13.60;99.90;;;;;;4990560;28;20026;-77
2023/08/17 04:33:40;;;;;;;5.95;4.57;;;13.60;99.90;;;;;;4990917;28;20120;-75
2023/08/17 04:36:06;;;;;;;8.57;4.65;;;13.60;99.90;;;;;;4990793;28;20027;-76
2023/08/17 04:38:31;;;;;;;5.65;3.83;;;13.60;99.90;;;;;;4990143;28;20400;-77
2023/08/17 04:40:57;;;;;;;5.25;4.18;;;13.60;99.90;;;;;;4990691;28;20057;-76
2023/08/17 04:43:23;;;;;;;5.80;4.97;;;13.60;99.90;;;;;;4992558;28;20359;-76
2023/08/17 04:45:49;;;;;;;5.97;4.35;;;13.60;99.90;;;;;;4994277;28;20360;-78
2023/08/17 04:48:14;;;;;;;7.53;4.35;;;13.50;99.90;;;;;;4992838;28;20028;-76
2023/08/17 04:50:40;;;;;;;5.72;4.47;;;13.40;99.90;;;;;;4994146;28;20034;-74
2023/08/17 04:53:06;;;;;;;5.03;4.07;;;13.40;99.90;;;;;;4993963;28;20035;-75
2023/08/17 04:55:32;;;;;;;5.25;4.75;;;13.40;99.90;;;;;;4993543;28;20589;-76
2023/08/17 04:57:57;;;;;;;5.50;3.83;;;13.40;99.90;;;;;;4993945;28;20026;-75
2023/08/17 05:00:28;;;;;;;6.40;4.13;;;13.30;99.90;;;;;;4991769;28;20026;-75
2023/08/17 05:02:57;;;;;;;5.78;4.55;;;13.30;99.90;;;;;;4994149;28;20121;-77
2023/08/17 05:05:23;;;;;;;6.65;4.15;;;13.30;99.90;;;;;;4993503;28;20369;-76
2023/08/17 05:07:49;;;;;;;6.32;3.92;;;13.30;99.90;;;;;;4993763;28;20063;-75
2023/08/17 05:10:15;;;;;;;6.72;4.45;;;13.30;99.90;;;;;;4994897;28;20026;-76
2023/08/17 05:12:41;;;;;;;6.30;3.92;;;13.30;99.90;;;;;;4993601;28;20190;-75
2023/08/17 05:15:07;;;;;;;9.43;4.78;;;13.30;99.90;;;;;;4993982;28;20486;-76
2023/08/17 05:17:33;;;;;;;8.95;5.15;;;13.40;99.90;;;;;;4993021;28;20027;-76
2023/08/17 05:19:58;;;;;;;5.13;3.88;;;13.40;99.90;;;;;;4994087;28;20033;-76
2023/08/17 05:22:24;;;;;;;7.32;5.40;;;13.40;99.90;;;;;;4993207;28;20073;-75
2023/08/17 05:24:50;;;;;;;6.50;4.32;;;13.40;99.90;;;;;;4994063;28;20023;-75
2023/08/17 05:27:15;;;;;;;8.70;5.25;;;13.40;99.90;;;;;;4993656;28;20117;-75
2023/08/17 05:29:41;;;;;;;6.03;4.35;;;13.40;99.90;;;;;;4992904;28;20141;-75
2023/08/17 05:32:07;;;;;;;7.60;4.60;;;13.50;99.90;;;;;;4993329;28;20472;-76
2023/08/17 05:34:33;;;;;;;8.60;4.43;;;13.40;99.90;;;;;;4992601;28;20072;-76
2023/08/17 05:36:58;;;;;;;6.28;4.43;;;13.40;99.90;;;;;;4993123;28;20033;-75
2023/08/17 05:39:24;;;;;;;6.43;4.30;;;13.50;99.90;;;;;;4992086;28;20046;-76
2023/08/17 05:41:50;;;;;;;5.10;4.57;;;13.50;99.90;;;;;;4992895;28;20034;-76
2023/08/17 05:44:17;;;;;;;6.57;4.32;;;13.50;99.90;;;;;;4993041;28;20376;-77
2023/08/17 05:46:43;;;;;;;6.43;4.30;;;13.50;99.90;;;;;;4992794;28;20054;-76
2023/08/17 05:49:08;;;;;;;8.73;5.20;;;13.60;99.90;;;;;;4993765;28;20045;-76
2023/08/17 05:51:34;;;;;;;8.18;5.35;;;13.70;99.90;;;;;;4992878;28;20453;-77
2023/08/17 05:54:00;;;;;;;9.20;5.50;;;13.90;99.90;;;;;;4992486;28;20079;-77
2023/08/17 05:56:25;;;;;;;6.10;5.03;;;14.00;99.90;;;;;;4993157;28;20030;-77
2023/08/17 05:58:51;;;;;;;7.88;4.65;;;14.10;99.90;;;;;;4993304;28;20057;-76
2023/08/17 06:01:17;;;;;;;9.65;5.03;;;14.20;99.90;;;;;;4992747;28;20122;-77
2023/08/17 06:03:43;;;;;;;8.02;4.95;;;14.30;99.90;;;;;;4991988;28;20026;-76
2023/08/17 06:06:09;;;;;;;8.68;5.28;;;14.40;99.90;;;;;;4992649;28;20452;-75
2023/08/17 06:08:35;;;;;;;8.10;4.43;;;14.50;99.90;;;;;;4991663;28;20026;-76
2023/08/17 06:11:01;;;;;;;6.38;3.83;;;14.60;99.90;;;;;;4992556;28;20084;-75
2023/08/17 06:13:27;;;;;;;5.35;3.78;;;14.70;99.90;;;;;;4991749;28;20443;-75
2023/08/17 06:15:52;;;;;;;6.38;3.90;;;14.90;99.90;;;;;;4992292;28;20076;-75
2023/08/17 06:18:20;;;;;;;5.85;3.95;;;15.00;99.90;;;;;;4992483;28;20022;-76
2023/08/17 06:20:47;;;;;;;9.90;3.30;;;15.10;99.90;;;;;;4991607;28;20033;-76
2023/08/17 06:23:13;;;;;;;4.10;3.10;;;15.10;99.90;;;;;;4992053;28;20121;-76
2023/08/17 06:25:38;;;;;;;6.10;3.00;;;15.20;99.90;;;;;;4991596;28;20177;-77
2023/08/17 06:28:06;;;;;;;6.47;3.25;;;15.30;99.90;;;;;;4992001;28;20431;-76
2023/08/17 06:30:32;;;;;;;6.65;2.80;;;15.50;99.90;;;;;;4990329;28;20161;-77
2023/08/17 06:32:58;;;;;;;4.28;2.42;;;15.70;99.90;;;;;;4992220;28;20117;-77
2023/08/17 06:35:24;;;;;;;3.08;2.03;;;15.80;99.90;;;;;;4991441;28;20049;-76
2023/08/17 06:37:51;;;;;;;4.47;2.10;;;15.90;99.90;;;;;;4991391;28;20460;-76
2023/08/17 06:40:17;;;;;;;5.47;2.90;;;16.10;99.90;;;;;;4991750;28;20153;-75
2023/08/17 06:42:42;;;;;;;6.40;2.50;;;16.20;99.90;;;;;;4990991;28;20675;-76
2023/08/17 06:45:08;;;;;;;5.80;2.25;;;16.30;99.90;;;;;;4991621;28;20117;-76
2023/08/17 06:47:34;;;;;;;6.20;2.17;;;16.40;99.90;;;;;;4990934;28;20029;-76
2023/08/17 06:50:00;;;;;;;8.55;2.25;;;16.40;99.90;;;;;;4991776;28;20019;-76
2023/08/17 06:52:25;;;;;;;4.60;1.92;;;16.50;99.90;;;;;;4989654;28;20026;-77
2023/08/17 06:54:51;;;;;;;7.85;1.98;;;16.60;99.90;;;;;;4991625;28;20462;-76
2023/08/17 06:57:17;;;;;;;6.85;1.85;;;16.60;99.90;;;;;;4991116;28;20042;-76
2023/08/17 06:59:45;;;;;;;5.93;2.25;;;16.60;99.90;;;;;;4991232;28;20580;-77
2023/08/17 07:02:11;;;;;;;5.30;2.00;;;16.70;99.90;;;;;;4991301;28;20052;-76
2023/08/17 07:04:37;;;;;;;6.57;2.20;;;16.70;99.90;;;;;;4990786;28;20101;-76
2023/08/17 07:07:03;;;;;;;3.25;2.22;;;16.80;99.90;;;;;;4991447;28;20436;-76
2023/08/17 07:09:29;;;;;;;5.95;2.15;;;16.80;99.90;;;;;;4990731;28;20029;-75
2023/08/17 07:11:54;;;;;;;3.17;1.60;;;17.00;99.90;;;;;;4991452;28;20392;-75
2023/08/17 07:14:20;;;;;;;6.63;2.13;;;17.10;99.90;;;;;;4991557;28;20110;-76
2023/08/17 07:16:46;;;;;;;4.28;1.90;;;17.20;99.90;;;;;;4990256;28;20482;-76
2023/08/17 07:19:13;;;;;;;5.25;1.40;;;17.30;99.90;;;;;;4989750;28;20031;-75
2023/08/17 07:21:39;;;;;;;4.38;1.73;;;17.40;99.90;;;;;;4990561;28;20038;-75
2023/08/17 07:24:15;;;;;;;4.78;1.27;;;17.50;99.90;;;;;;4990833;28;20100;-77
2023/08/17 07:26:41;;;;;;;2.35;1.40;;;17.50;99.90;;;;;;4990874;28;20105;-76
2023/08/17 07:29:07;;;;;;;3.17;1.48;;;17.40;99.90;;;;;;4990962;28;20060;-75
2023/08/17 07:31:33;;;;;;;4.75;1.60;;;17.40;99.90;;;;;;4989120;28;20061;-75
2023/08/17 07:34:00;;;;;;;4.95;2.03;;;17.30;99.90;;;;;;4990897;28;20523;-76
2023/08/17 07:36:25;;;;;;;7.75;1.52;;;17.30;99.90;;;;;;4991015;28;20026;-77
2023/08/17 07:38:51;;;;;;;4.78;2.00;;;17.30;99.90;;;;;;4990191;28;20061;-76
2023/08/17 07:41:17;;;;;;;5.10;1.83;;;17.30;99.90;;;;;;4990924;28;20449;-77
2023/08/17 07:43:42;;;;;;;3.42;1.73;;;17.30;99.90;;;;;;4990241;28;20042;-77
2023/08/17 07:46:08;;;;;;;4.47;2.17;;;17.30;99.90;;;;;;4991166;28;20145;-76
2023/08/17 07:48:34;;;;;;;4.07;1.58;;;17.40;99.90;;;;;;4990281;28;20344;-77
2023/08/17 07:51:00;;;;;;;7.95;2.15;;;17.40;99.90;;;;;;4991158;28;20038;-77
2023/08/17 07:53:25;;;;;;;4.07;1.60;;;17.60;99.90;;;;;;4990619;28;20478;-76
2023/08/17 07:55:51;;;;;;;6.18;2.08;;;17.80;99.90;;;;;;4990621;28;20466;-76
2023/08/17 07:58:17;;;;;;;3.00;1.40;;;18.00;99.90;;;;;;4990884;28;20053;-76
2023/08/17 08:00:42;;;;;;;6.90;1.83;;;18.10;99.90;;;;;;4990033;28;20049;-76
2023/08/17 08:03:09;;;;;;;5.03;1.55;;;18.30;99.90;;;;;;4990816;28;20038;-77
2023/08/17 08:05:35;;;;;;;5.90;1.80;;;18.40;99.90;;;;;;4989011;28;20383;-76
2023/08/17 08:08:01;;;;;;;4.70;1.80;;;18.50;99.90;;;;;;4990811;28;20027;-77
2023/08/17 08:10:28;;;;;;;4.50;1.70;;;18.70;99.90;;;;;;4990746;28;20065;-78
2023/08/17 08:12:53;;;;;;;6.18;2.17;;;18.70;99.90;;;;;;4990738;28;20034;-78
2023/08/17 08:15:19;;;;;;;2.25;1.35;;;18.70;99.90;;;;;;4990720;28;20171;-78
2023/08/17 08:17:45;;;;;;;5.35;1.63;;;18.70;99.90;;;;;;4992041;28;20042;-77
2023/08/17 08:20:11;;;;;;;5.07;1.50;;;18.70;99.90;;;;;;4993346;28;20086;-78
2023/08/17 08:22:36;;;;;;;3.30;1.38;;;18.80;99.90;;;;;;4993852;28;20038;-78
2023/08/17 08:25:02;;;;;;;5.20;1.60;;;18.80;99.90;;;;;;4994472;28;20026;-77
2023/08/17 08:27:28;;;;;;;4.60;1.50;;;18.90;99.90;;;;;;4994108;28;20058;-77
2023/08/17 08:29:54;;;;;;;4.05;1.50;;;19.00;99.90;;;;;;4992073;28;20069;-77
2023/08/17 08:32:19;;;;;;;5.93;1.85;;;19.10;99.90;;;;;;4993845;28;20035;-77
2023/08/17 08:34:45;;;;;;;9.00;1.50;;;19.00;99.90;;;;;;4993692;28;20037;-77
2023/08/17 08:37:11;;;;;;;8.88;1.80;;;19.10;99.90;;;;;;4993871;28;20195;-78
2023/08/17 08:39:53;;;;;;;5.97;1.83;;;19.20;99.90;;;;;;4993035;28;20043;-76
2023/08/17 08:42:20;;;;;;;2.80;1.15;;;19.30;99.90;;;;;;4992284;28;20038;-78
2023/08/17 08:44:46;;;;;;;5.78;1.80;;;19.40;99.90;;;;;;4993350;28;20100;-77
2023/08/17 08:47:13;;;;;;;5.70;2.30;;;19.40;99.90;;;;;;4993335;28;20125;-77
2023/08/17 08:50:02;;;;;;;6.05;3.20;;;19.50;99.90;;;;;;4991400;28;20424;-78
2023/08/17 08:52:35;;;;;;;5.95;3.47;;;19.60;99.90;;;;;;4993562;28;20034;-77
2023/08/17 08:55:14;;;;;;;4.22;1.80;;;19.70;99.90;;;;;;4991610;28;20022;-76
2023/08/17 08:57:41;;;;;;;3.83;1.92;;;19.70;99.90;;;;;;4992610;28;20026;-77
2023/08/17 09:00:07;;;;;;;5.63;1.85;;;19.70;99.90;;;;;;4993124;28;20077;-75
2023/08/17 09:02:34;;;;;;;6.00;1.67;;;19.70;99.90;;;;;;4992050;28;20036;-79
2023/08/17 09:05:00;;;;;;;6.82;1.77;;;19.70;99.90;;;;;;4993347;28;20026;-76
2023/08/17 09:07:28;;;;;;;5.30;1.90;;;19.60;99.90;;;;;;4993222;28;20022;-75
2023/08/17 09:09:55;;;;;;;6.53;1.98;;;19.60;99.90;;;;;;4992742;28;20026;-76
2023/08/17 09:12:22;;;;;;;4.60;1.52;;;19.70;99.90;;;;;;4992015;28;20125;-75
2023/08/17 09:14:48;;;;;;;6.70;1.60;;;19.80;99.90;;;;;;4991983;28;20030;-75
2023/08/17 09:17:13;;;;;;;5.22;1.70;;;19.90;99.90;;;;;;4993707;28;20037;-76
2023/08/17 09:19:39;;;;;;;2.58;1.48;;;19.90;99.90;;;;;;4992457;28;20030;-77
2023/08/17 09:22:05;;;;;;;8.18;1.83;;;19.90;99.90;;;;;;4993031;28;20381;-77
2023/08/17 09:24:37;;;;;;;3.85;1.63;;;19.90;99.90;;;;;;4992955;28;20034;-78
2023/08/17 09:27:03;;;;;;;4.55;1.77;;;19.80;99.90;;;;;;4993486;28;20026;-76
2023/08/17 09:29:36;;;;;;;3.88;1.60;;;19.80;99.90;;;;;;4992775;28;20026;-77
2023/08/17 09:32:07;;;;;;;3.58;1.65;;;19.90;99.90;;;;;;4993402;28;20084;-76
2023/08/17 09:34:33;;;;;;;4.10;1.95;;;20.00;99.90;;;;;;4992874;28;20026;-78
2023/08/17 09:37:04;;;;;;;4.78;1.80;;;20.00;99.90;;;;;;4992984;28;20026;-76
2023/08/17 09:39:31;;;;;;;3.87;1.80;;;20.00;99.90;;;;;;4992810;28;20434;-77
2023/08/17 09:41:57;;;;;;;5.80;1.88;;;20.10;99.90;;;;;;4992817;28;20280;-78
2023/08/17 09:44:23;;;;;;;4.75;2.30;;;20.10;99.90;;;;;;4992333;28;20176;-76
2023/08/17 09:46:48;;;;;;;6.10;2.00;;;20.10;99.90;;;;;;4993077;28;20039;-77
2023/08/17 09:49:14;;;;;;;5.80;1.90;;;20.00;99.90;;;;;;4992660;28;20434;-76
2023/08/17 09:51:43;;;;;;;6.55;1.73;;;20.00;99.90;;;;;;4993297;28;20117;-76
2023/08/17 09:54:22;;;;;;;5.97;2.40;;;20.10;99.90;;;;;;4993851;28;20029;-76
2023/08/17 09:56:53;;;;;;;4.25;2.10;;;20.20;99.90;;;;;;4993060;28;20022;-78
2023/08/17 09:59:19;;;;;;;5.30;2.00;;;20.30;99.90;;;;;;4993802;28;20026;-76
2023/08/17 10:01:48;;;;;;;4.18;2.10;;;20.30;99.90;;;;;;4993206;28;20034;-77
2023/08/17 10:04:17;;;;;;;5.72;2.38;;;20.30;99.90;;;;;;4993686;28;20026;-77
2023/08/17 10:06:43;;;;;;;6.10;2.38;;;20.20;99.90;;;;;;4993053;28;20053;-76
2023/08/17 10:09:12;;;;;;;6.50;2.40;;;20.20;99.90;;;;;;4993853;28;20435;-76
2023/08/17 10:11:40;;;;;;;5.82;2.53;;;20.20;99.90;;;;;;4991805;28;20185;-77
2023/08/17 10:14:21;;;;;;;4.47;2.40;;;20.10;99.90;;;;;;4992409;28;20033;-77
2023/08/17 10:16:53;;;;;;;6.40;2.75;;;20.00;99.90;;;;;;4992990;28;20023;-77
2023/08/17 10:19:48;;;;;;;4.22;2.30;;;19.90;99.90;;;;;;4993386;28;20041;-77
2023/08/17 10:22:29;;;;;;;6.20;2.30;;;19.90;99.90;;;;;;4993051;28;20098;-77
2023/08/17 10:24:58;;;;;;;9.38;2.33;;;19.90;99.90;;;;;;4992764;28;20033;-78
2023/08/17 10:27:25;;;;;;;5.93;2.80;;;20.00;99.90;;;;;;4991960;28;20026;-78
2023/08/17 10:29:52;;;;;;;6.75;2.78;;;20.00;99.90;;;;;;4993172;28;20041;-78
2023/08/17 10:32:18;;;;;;;4.32;2.17;;;20.10;99.90;;;;;;4993582;28;20034;-77
2023/08/17 10:34:44;;;;;;;7.78;2.15;;;20.10;99.90;;;;;;4992785;28;20022;-78
2023/08/17 10:37:11;;;;;;;5.95;2.70;;;20.10;99.90;;;;;;4992755;28;20022;-78
2023/08/17 10:39:46;;;;;;;7.50;2.88;;;20.20;99.90;;;;;;4992192;28;20491;-79
2023/08/17 10:42:13;;;;;;;5.13;2.50;;;20.20;99.90;;;;;;4992469;28;20042;-78
2023/08/17 10:44:47;;;;;;;5.32;2.35;;;20.20;99.90;;;;;;4992015;28;20030;-79
2023/08/17 10:47:20;;;;;;;4.80;2.22;;;20.40;99.90;;;;;;4992422;28;20092;-77
2023/08/17 10:49:51;;;;;;;6.50;2.40;;;20.50;99.90;;;;;;4991847;28;20045;-78
2023/08/17 10:52:26;;;;;;;4.00;2.33;;;20.60;99.90;;;;;;4992350;28;20030;-77
2023/08/17 10:54:52;;;;;;;6.13;2.78;;;20.60;99.90;;;;;;4991810;28;20125;-78
2023/08/17 10:57:29;;;;;;;7.55;3.00;;;20.60;99.90;;;;;;4992774;28;20491;-77
2023/08/17 11:00:32;;;;;;;7.32;2.30;;;20.40;99.90;;;;;;4991642;28;20118;-77
2023/08/17 11:03:16;;;;;;;3.90;2.10;;;20.40;99.90;;;;;;4990925;28;20642;-78
2023/08/17 11:05:50;;;;;;;7.25;2.47;;;20.50;99.90;;;;;;4990733;28;20043;-77
2023/08/17 11:08:38;;;;;;;4.22;2.53;;;20.50;99.90;;;;;;4991329;28;20468;-76
2023/08/17 11:11:10;;;;;;;5.78;2.72;;;20.50;99.90;;;;;;4991263;28;20057;-77
2023/08/17 11:13:38;;;;;;;9.23;2.35;;;20.50;99.90;;;;;;4991774;28;20068;-76
2023/08/17 11:16:05;;;;;;;7.15;3.13;;;20.50;99.90;;;;;;4992610;28;20085;-76
2023/08/17 11:18:32;;;;;;;5.35;3.15;;;20.40;99.90;;;;;;4991648;28;20105;-77
2023/08/17 11:20:58;;;;;;;7.45;2.75;;;20.30;99.90;;;;;;4991778;28;20027;-77
2023/08/17 11:23:24;;;;;;;6.05;2.63;;;20.20;99.90;;;;;;4992250;28;20034;-77
2023/08/17 11:25:53;;;;;;;7.35;2.78;;;20.30;99.90;;;;;;4991408;28;20031;-77
2023/08/17 11:28:19;;;;;;;9.18;2.50;;;20.30;99.90;;;;;;4991989;28;20451;-76
2023/08/17 11:30:44;;;;;;;9.35;2.30;;;20.40;99.90;;;;;;4991650;28;20031;-77
2023/08/17 11:33:10;;;;;;;7.00;2.85;;;20.40;99.90;;;;;;4991663;28;20460;-76
2023/08/17 11:35:37;;;;;;;7.45;2.20;;;20.50;99.90;;;;;;4991759;28;20413;-76
2023/08/17 11:38:05;;;;;;;6.25;2.30;;;20.50;99.90;;;;;;4991337;28;20030;-76
2023/08/17 11:40:32;;;;;;;6.50;2.47;;;20.60;99.90;;;;;;4992690;28;20105;-75
2023/08/17 11:42:58;;;;;;;5.78;2.15;;;20.60;99.90;;;;;;4992521;28;20045;-77
2023/08/17 11:45:24;;;;;;;3.40;1.92;;;20.60;99.90;;;;;;4992896;28;20360;-77
2023/08/17 11:47:49;;;;;;;7.38;2.40;;;20.70;99.90;;;;;;4992181;28;20107;-77
2023/08/17 11:50:15;;;;;;;8.75;2.63;;;20.80;99.90;;;;;;4992948;28;20430;-77
2023/08/17 11:52:41;;;;;;;6.75;2.30;;;20.80;99.90;;;;;;4994142;28;20340;-77
2023/08/17 11:55:09;;;;;;;8.80;2.90;;;20.80;99.90;;;;;;4996199;28;20029;-78
2023/08/17 11:57:36;;;;;;;7.55;2.47;;;20.90;99.90;;;;;;4997213;28;20022;-77
2023/08/17 12:00:03;;;;;;;3.20;2.38;;;20.80;99.90;;;;;;4996832;28;20038;-76
2023/08/17 12:02:30;;;;;;;4.82;2.45;;;20.90;99.90;;;;;;4996111;28;20137;-76
2023/08/17 12:04:56;;;;;;;7.50;2.70;;;20.90;99.90;;;;;;4995408;28;20034;-76
2023/08/17 12:07:25;;;;;;;2.90;2.17;;;21.00;99.90;;;;;;4995722;28;20038;-78
2023/08/17 12:09:52;;;;;;;4.40;2.53;;;21.10;99.90;;;;;;4995159;28;20040;-78
2023/08/17 12:12:24;;;;;;;5.43;2.55;;;21.20;99.90;;;;;;4995237;28;20156;-78
2023/08/17 12:14:50;;;;;;;4.95;2.47;;;21.20;99.90;;;;;;4994723;28;20336;-76
2023/08/17 12:17:20;;;;;;;6.30;2.70;;;21.10;99.90;;;;;;4995274;28;20027;-77
2023/08/17 12:19:50;;;;;;;5.72;2.72;;;21.00;99.90;;;;;;4994882;28;20459;-78
2023/08/17 12:22:17;;;;;;;5.97;2.35;;;20.90;99.90;;;;;;4994821;28;20038;-78
2023/08/17 12:24:43;;;;;;;5.40;2.97;;;20.80;99.90;;;;;;4993501;28;20058;-79
2023/08/17 12:27:10;;;;;;;5.43;3.33;;;20.70;99.90;;;;;;4996817;28;20129;-77
2023/08/17 12:29:48;;;;;;;7.57;2.83;;;20.70;99.90;;;;;;5000141;28;20459;-76
2023/08/17 12:32:16;;;;;;;6.97;3.58;;;20.70;99.90;;;;;;4999839;28;20072;-77
2023/08/17 12:34:42;;;;;;;7.82;3.22;;;20.60;99.90;;;;;;5001233;28;20034;-76
2023/08/17 12:37:12;;;;;;;6.38;3.60;;;20.60;99.90;;;;;;5003458;28;20022;-78
2023/08/17 12:39:38;;;;;;;10.30;4.63;;;20.60;99.90;;;;;;5004846;28;20038;-78
2023/08/17 12:42:05;;;;;;;5.75;3.53;;;20.50;99.90;;;;;;5005214;28;20191;-78
2023/08/17 12:44:30;;;;;;;9.00;4.00;;;20.50;99.90;;;;;;5011424;28;20423;-78
2023/08/17 12:46:56;;;;;;;10.18;4.60;;;20.50;99.90;;;;;;4999598;28;20034;-78
2023/08/17 12:49:23;;;;;;;5.82;4.18;;;20.60;99.90;;;;;;4994767;28;20113;-78